Terminal Aerodrome Forecast
Issued by NWS Goodland, KS

Home | Current Version | Previous Version | Text Only | Print | Product List | Glossary On
Versions: 1 2 3 4 5 6 7 8 9 10 11 12 13 14 15 16 17 18
791
FTUS43 KGLD 231135
TAFGLD
TAF
KGLD 231135Z 2312/2412 17015G25KT 5SM BR BKN250 WS009/18070KT
      TEMPO 2312/2314 3SM BR BKN005
     FM231400 20020G30KT P6SM SCT250
     FM240200 17011KT P6SM VCTS SCT050CB BKN250
     FM240600 10012G20KT P6SM BKN050
     FM240900 04015G25KT P6SM VCSH BKN035=

USA.gov is the U.S. government's official web portal to all federal, state and local government web resources and services.